Time,TemperatureF,DewpointF,PressureIn,WindDirection,WindDirectionDegrees,WindSpeedMPH,WindSpeedGustMPH,Humidity,HourlyPrecipIn,Conditions,Clouds,dailyrainin,SoftwareType,DateUTC
2013-04-29 00:00:00,65.2,46.0,29.83,ENE,69,3.0,5.0,50,0.00,,,-99.99,Weather View 32 v60,2013-04-29 07:00:00,
2013-04-29 00:05:00,64.9,45.8,29.83,North,9,1.0,5.0,50,0.00,,,-99.99,Weather View 32 v60,2013-04-29 07:05:00,
2013-04-29 00:10:00,64.7,45.6,29.83,NE,44,4.0,6.0,50,0.00,,,-99.99,Weather View 32 v60,2013-04-29 07:10:00,
2013-04-29 00:15:00,64.5,45.4,29.83,NE,46,2.0,6.0,50,0.00,,,-99.99,Weather View 32 v60,2013-04-29 07:15:00,
2013-04-29 00:20:00,64.3,45.2,29.83,ENE,58,1.0,6.0,50,0.00,,,-99.99,Weather View 32 v60,2013-04-29 07:20:00,
2013-04-29 00:25:00,64.1,45.0,29.83,NE,41,4.0,6.0,50,0.00,,,-99.99,Weather View 32 v60,2013-04-29 07:25:00,
2013-04-29 00:30:00,64.0,45.5,29.83,North,359,5.0,6.0,51,0.00,,,-99.99,Weather View 32 v60,2013-04-29 07:30:00,
2013-04-29 00:35:00,63.9,45.4,29.83,NE,53,3.0,6.0,51,0.00,,,-99.99,Weather View 32 v60,2013-04-29 07:35:00,
2013-04-29 00:40:00,63.8,45.3,29.83,North,2,2.0,8.0,51,0.00,,,-99.99,Weather View 32 v60,2013-04-29 07:40:00,
2013-04-29 00:45:00,64.0,44.9,29.83,NNE,28,2.0,8.0,50,0.00,,,-99.99,Weather View 32 v60,2013-04-29 07:45:00,
2013-04-29 00:50:00,64.0,44.9,29.82,NNE,28,4.0,8.0,50,0.00,,,-99.99,Weather View 32 v60,2013-04-29 07:50:00,
2013-04-29 00:55:00,64.0,45.5,29.83,NE,36,6.0,8.0,51,0.00,,,-99.99,Weather View 32 v60,2013-04-29 07:55:00,
2013-04-29 01:00:00,63.9,45.4,29.83,ESE,111,2.0,8.0,51,0.00,,,-99.99,Weather View 32 v60,2013-04-29 08:00:00,
2013-04-29 01:05:00,63.7,45.2,29.82,NE,56,3.0,8.0,51,0.00,,,-99.99,Weather View 32 v60,2013-04-29 08:05:00,
2013-04-29 01:10:00,63.5,45.0,29.82,NNW,340,1.0,8.0,51,0.00,,,-99.99,Weather View 32 v60,2013-04-29 08:10:00,
2013-04-29 01:15:00,63.5,45.0,29.82,NE,43,2.0,8.0,51,0.00,,,-99.99,Weather View 32 v60,2013-04-29 08:15:00,
2013-04-29 01:20:00,63.6,45.1,29.82,North,8,2.0,8.0,51,0.00,,,-99.99,Weather View 32 v60,2013-04-29 08:20:00,
2013-04-29 01:25:00,63.6,45.1,29.82,NE,34,2.0,8.0,51,0.00,,,-99.99,Weather View 32 v60,2013-04-29 08:25:00,
2013-04-29 01:30:00,63.6,45.1,29.81,NE,34,2.0,8.0,51,0.00,,,-99.99,Weather View 32 v60,2013-04-29 08:30:00,
2013-04-29 01:35:00,63.4,44.9,29.81,NNE,25,1.0,8.0,51,0.00,,,-99.99,Weather View 32 v60,2013-04-29 08:35:00,
2013-04-29 01:40:00,63.2,45.2,29.81,NE,54,2.0,8.0,52,0.00,,,-99.99,Weather View 32 v60,2013-04-29 08:40:00,
2013-04-29 01:45:00,62.8,45.4,29.81,NE,42,2.0,7.0,53,0.00,,,-99.99,Weather View 32 v60,2013-04-29 08:45:00,
2013-04-29 01:50:00,62.5,45.1,29.81,ENE,58,2.0,7.0,53,0.00,,,-99.99,Weather View 32 v60,2013-04-29 08:50:00,
2013-04-29 01:55:00,62.4,45.0,29.81,NNW,346,2.0,7.0,53,0.00,,,-99.99,Weather View 32 v60,2013-04-29 08:55:00,
2013-04-29 02:00:00,62.4,45.0,29.81,NE,44,4.0,7.0,53,0.00,,,-99.99,Weather View 32 v60,2013-04-29 09:00:00,
2013-04-29 02:05:00,62.4,45.5,29.80,NE,54,3.0,7.0,54,0.00,,,-99.99,Weather View 32 v60,2013-04-29 09:05:00,
2013-04-29 02:10:00,62.2,45.3,29.80,NE,55,2.0,7.0,54,0.00,,,-99.99,Weather View 32 v60,2013-04-29 09:10:00,
2013-04-29 02:15:00,62.2,45.3,29.80,NNE,30,5.0,7.0,54,0.00,,,-99.99,Weather View 32 v60,2013-04-29 09:15:00,
2013-04-29 02:25:00,62.5,45.6,29.80,NE,42,5.0,7.0,54,0.00,,,-99.99,Weather View 32 v60,2013-04-29 09:25:00,
2013-04-29 02:30:00,62.6,45.7,29.80,NE,34,1.0,7.0,54,0.00,,,-99.99,Weather View 32 v60,2013-04-29 09:30:00,
2013-04-29 02:35:00,62.5,45.6,29.80,North,6,4.0,7.0,54,0.00,,,-99.99,Weather View 32 v60,2013-04-29 09:35:00,
2013-04-29 02:40:00,62.5,45.1,29.80,ENE,64,4.0,7.0,53,0.00,,,-99.99,Weather View 32 v60,2013-04-29 09:40:00,
2013-04-29 02:45:00,62.8,45.4,29.80,NE,40,4.0,8.0,53,0.00,,,-99.99,Weather View 32 v60,2013-04-29 09:45:00,
2013-04-29 02:50:00,63.3,45.3,29.80,NE,46,4.0,8.0,52,0.00,,,-99.99,Weather View 32 v60,2013-04-29 09:50:00,
2013-04-29 02:55:00,63.8,45.3,29.80,NNE,21,4.0,8.0,51,0.00,,,-99.99,Weather View 32 v60,2013-04-29 09:55:00,
2013-04-29 03:00:00,63.8,45.3,29.80,NE,35,4.0,8.0,51,0.00,,,-99.99,Weather View 32 v60,2013-04-29 10:00:00,
2013-04-29 03:05:00,63.5,45.5,29.80,NE,41,4.0,8.0,52,0.00,,,-99.99,Weather View 32 v60,2013-04-29 10:05:00,
2013-04-29 03:10:00,63.2,45.2,29.80,NE,42,6.0,8.0,52,0.00,,,-99.99,Weather View 32 v60,2013-04-29 10:10:00,
2013-04-29 03:15:00,63.1,45.1,29.80,NNE,16,4.0,8.0,52,0.00,,,-99.99,Weather View 32 v60,2013-04-29 10:15:00,
2013-04-29 03:20:00,63.1,45.1,29.80,North,5,3.0,8.0,52,0.00,,,-99.99,Weather View 32 v60,2013-04-29 10:20:00,
2013-04-29 03:23:00,62.4,45.5,29.80,North,6,4.0,7.0,54,0.00,,,-99.99,Weather View 32 v60,2013-04-29 10:23:00,
2013-04-29 03:25:00,63.1,45.1,29.80,NNE,12,2.0,8.0,52,0.00,,,-99.99,Weather View 32 v60,2013-04-29 10:25:00,
2013-04-29 03:30:00,62.8,45.4,29.80,North,7,2.0,8.0,53,0.00,,,-99.99,Weather View 32 v60,2013-04-29 10:30:00,
2013-04-29 03:35:00,62.5,45.1,29.80,NNE,19,4.0,8.0,53,0.00,,,-99.99,Weather View 32 v60,2013-04-29 10:35:00,
2013-04-29 03:36:00,62.6,45.7,29.80,NE,34,1.0,7.0,54,0.00,,,-99.99,Weather View 32 v60,2013-04-29 10:36:00,
2013-04-29 03:40:00,62.2,45.3,29.80,NE,38,3.0,8.0,54,0.00,,,-99.99,Weather View 32 v60,2013-04-29 10:40:00,
2013-04-29 03:45:00,61.9,45.0,29.81,NE,35,3.0,8.0,54,0.00,,,-99.99,Weather View 32 v60,2013-04-29 10:45:00,
2013-04-29 03:50:00,61.8,45.4,29.81,NNE,19,3.0,8.0,55,0.00,,,-99.99,Weather View 32 v60,2013-04-29 10:50:00,
2013-04-29 03:55:00,61.8,45.4,29.81,NE,42,4.0,8.0,55,0.00,,,-99.99,Weather View 32 v60,2013-04-29 10:55:00,
2013-04-29 04:00:00,61.6,45.2,29.81,NNE,33,3.0,8.0,55,0.00,,,-99.99,Weather View 32 v60,2013-04-29 11:00:00,
2013-04-29 04:15:00,60.7,45.3,29.81,NNE,21,2.0,7.0,57,0.00,,,-99.99,Weather View 32 v60,2013-04-29 11:15:00,
2013-04-29 04:20:00,60.6,45.2,29.81,ENE,57,4.0,7.0,57,0.00,,,-99.99,Weather View 32 v60,2013-04-29 11:20:00,
2013-04-29 04:25:00,60.5,45.2,29.81,NE,45,4.0,7.0,57,0.00,,,-99.99,Weather View 32 v60,2013-04-29 11:25:00,
2013-04-29 04:30:00,60.4,45.1,29.81,ENE,58,2.0,7.0,57,0.00,,,-99.99,Weather View 32 v60,2013-04-29 11:30:00,
2013-04-29 04:45:00,60.0,45.1,29.81,NNE,32,4.0,7.0,58,0.00,,,-99.99,Weather View 32 v60,2013-04-29 11:45:00,
2013-04-29 04:50:00,60.0,45.1,29.82,ENE,59,2.0,7.0,58,0.00,,,-99.99,Weather View 32 v60,2013-04-29 11:50:00,
2013-04-29 05:08:00,61.3,45.4,29.81,North,5,1.0,8.0,56,0.00,,,-99.99,Weather View 32 v60,2013-04-29 12:08:00,
2013-04-29 05:13:00,61.0,45.2,29.81,NNE,23,3.0,7.0,56,0.00,,,-99.99,Weather View 32 v60,2013-04-29 12:13:00,
2013-04-29 05:20:00,59.7,45.3,29.82,NE,41,3.0,7.0,59,0.00,,,-99.99,Weather View 32 v60,2013-04-29 12:20:00,
2013-04-29 05:30:00,59.7,45.3,29.82,ENE,63,2.0,7.0,59,0.00,,,-99.99,Weather View 32 v60,2013-04-29 12:30:00,
2013-04-29 05:33:00,60.4,45.1,29.81,ENE,58,2.0,7.0,57,0.00,,,-99.99,Weather View 32 v60,2013-04-29 12:33:00,
2013-04-29 05:35:00,59.8,45.4,29.83,ENE,57,2.0,7.0,59,0.00,,,-99.99,Weather View 32 v60,2013-04-29 12:35:00,
2013-04-29 05:43:00,60.1,45.2,29.81,NE,34,2.0,7.0,58,0.00,,,-99.99,Weather View 32 v60,2013-04-29 12:43:00,
2013-04-29 05:50:00,60.8,45.4,29.83,NE,43,3.0,7.0,57,0.00,,,-99.99,Weather View 32 v60,2013-04-29 12:50:00,
2013-04-29 05:58:00,59.9,45.1,29.82,ENE,59,3.0,6.0,58,0.00,,,-99.99,Weather View 32 v60,2013-04-29 12:58:00,
2013-04-29 06:00:00,61.7,45.8,29.83,NNE,20,2.0,7.0,56,0.00,,,-99.99,Weather View 32 v60,2013-04-29 13:00:00,
2013-04-29 06:03:00,59.8,45.0,29.82,NE,55,4.0,6.0,58,0.00,,,-99.99,Weather View 32 v60,2013-04-29 13:03:00,
2013-04-29 06:08:00,59.8,45.0,29.82,NNE,17,2.0,7.0,58,0.00,,,-99.99,Weather View 32 v60,2013-04-29 13:08:00,
2013-04-29 06:10:00,63.9,45.9,29.83,North,4,2.0,8.0,52,0.00,,,-99.99,Weather View 32 v60,2013-04-29 13:10:00,
2013-04-29 06:18:00,59.8,45.0,29.82,NNE,31,4.0,7.0,58,0.00,,,-99.99,Weather View 32 v60,2013-04-29 13:18:00,
2013-04-29 06:25:00,65.7,46.0,29.83,NE,34,2.0,8.0,49,0.00,,,-99.99,Weather View 32 v60,2013-04-29 13:25:00,
2013-04-29 06:28:00,59.6,45.2,29.82,ENE,61,2.0,7.0,59,0.00,,,-99.99,Weather View 32 v60,2013-04-29 13:28:00,
2013-04-29 06:30:00,66.1,45.8,29.83,North,360,3.0,8.0,48,0.00,,,-99.99,Weather View 32 v60,2013-04-29 13:30:00,
2013-04-29 06:35:00,66.7,46.3,29.83,North,358,2.0,8.0,48,0.00,,,-99.99,Weather View 32 v60,2013-04-29 13:35:00,
2013-04-29 06:40:00,67.2,46.2,29.84,ENE,67,3.0,8.0,47,0.00,,,-99.99,Weather View 32 v60,2013-04-29 13:40:00,
2013-04-29 06:43:00,60.1,45.2,29.83,NNE,30,2.0,7.0,58,0.00,,,-99.99,Weather View 32 v60,2013-04-29 13:43:00,
2013-04-29 06:45:00,67.8,46.8,29.84,North,9,3.0,8.0,47,0.00,,,-99.99,Weather View 32 v60,2013-04-29 13:45:00,
2013-04-29 06:48:00,60.4,45.5,29.83,NNE,23,1.0,7.0,58,0.00,,,-99.99,Weather View 32 v60,2013-04-29 13:48:00,
2013-04-29 06:50:00,68.1,46.5,29.84,NE,45,5.0,8.0,46,0.00,,,-99.99,Weather View 32 v60,2013-04-29 13:50:00,
2013-04-29 06:58:00,61.3,45.4,29.83,NNE,15,3.0,7.0,56,0.00,,,-99.99,Weather View 32 v60,2013-04-29 13:58:00,
2013-04-29 07:00:00,69.1,46.8,29.84,North,11,2.0,9.0,45,0.00,,,-99.99,Weather View 32 v60,2013-04-29 14:00:00,
2013-04-29 07:08:00,62.6,45.7,29.83,NNE,28,5.0,6.0,54,0.00,,,-99.99,Weather View 32 v60,2013-04-29 14:08:00,
2013-04-29 07:10:00,70.0,47.6,29.84,North,352,1.0,9.0,45,0.00,,,-99.99,Weather View 32 v60,2013-04-29 14:10:00,
2013-04-29 07:15:00,70.8,48.3,29.84,NNE,22,2.0,9.0,45,0.00,,,-99.99,Weather View 32 v60,2013-04-29 14:15:00,
2013-04-29 07:18:00,64.8,46.2,29.83,North,349,2.0,8.0,51,0.00,,,-99.99,Weather View 32 v60,2013-04-29 14:18:00,
2013-04-29 07:20:00,71.0,47.3,29.84,NNE,29,5.0,9.0,43,0.00,,,-99.99,Weather View 32 v60,2013-04-29 14:20:00,
2013-04-29 07:23:00,65.3,45.6,29.83,NNE,13,4.0,8.0,49,0.00,,,-99.99,Weather View 32 v60,2013-04-29 14:23:00,
2013-04-29 07:35:00,72.3,48.5,29.84,North,7,2.0,9.0,43,0.00,,,-99.99,Weather View 32 v60,2013-04-29 14:35:00,
2013-04-29 07:45:00,74.8,49.5,29.84,NNE,22,2.0,9.0,41,0.00,,,-99.99,Weather View 32 v60,2013-04-29 14:45:00,
2013-04-29 07:50:00,75.7,48.9,29.84,NNE,29,2.0,9.0,39,0.00,,,-99.99,Weather View 32 v60,2013-04-29 14:50:00,
2013-04-29 07:55:00,76.3,49.4,29.84,North,8,2.0,9.0,39,0.00,,,-99.99,Weather View 32 v60,2013-04-29 14:55:00,
2013-04-29 07:58:00,68.7,46.4,29.84,NNE,22,2.0,8.0,45,0.00,,,-99.99,Weather View 32 v60,2013-04-29 14:58:00,
2013-04-29 08:00:00,76.3,49.4,29.84,NE,37,2.0,9.0,39,0.00,,,-99.99,Weather View 32 v60,2013-04-29 15:00:00,
2013-04-29 08:05:00,76.2,48.7,29.84,NE,39,6.0,8.0,38,0.00,,,-99.99,Weather View 32 v60,2013-04-29 15:05:00,
2013-04-29 08:08:00,69.6,47.3,29.84,NE,45,4.0,9.0,45,0.00,,,-99.99,Weather View 32 v60,2013-04-29 15:08:00,
2013-04-29 08:20:00,76.5,49.6,29.83,WNW,296,1.0,8.0,39,0.00,,,-99.99,Weather View 32 v60,2013-04-29 15:20:00,
2013-04-29 08:25:00,77.3,50.3,29.83,North,356,2.0,8.0,39,0.00,,,-99.99,Weather View 32 v60,2013-04-29 15:25:00,
2013-04-29 08:28:00,71.2,48.1,29.84,NE,42,1.0,9.0,44,0.00,,,-99.99,Weather View 32 v60,2013-04-29 15:28:00,
2013-04-29 08:33:00,71.5,48.4,29.84,NE,38,2.0,9.0,44,0.00,,,-99.99,Weather View 32 v60,2013-04-29 15:33:00,
2013-04-29 08:35:00,78.9,50.3,29.83,NE,49,3.0,8.0,37,0.00,,,-99.99,Weather View 32 v60,2013-04-29 15:35:00,
2013-04-29 08:38:00,72.3,48.5,29.84,North,7,2.0,9.0,43,0.00,,,-99.99,Weather View 32 v60,2013-04-29 15:38:00,
2013-04-29 08:43:00,73.7,49.1,29.84,NE,56,2.0,9.0,42,0.00,,,-99.99,Weather View 32 v60,2013-04-29 15:43:00,
2013-04-29 08:55:00,80.4,48.6,29.83,NNE,28,2.0,8.0,33,0.00,,,-99.99,Weather View 32 v60,2013-04-29 15:55:00,
2013-04-29 09:13:00,76.2,48.7,29.84,East,85,6.0,8.0,38,0.00,,,-99.99,Weather View 32 v60,2013-04-29 16:13:00,
2013-04-29 09:15:00,80.3,44.1,29.83,NNW,348,7.0,14.0,28,0.00,,,-99.99,Weather View 32 v60,2013-04-29 16:15:00,
2013-04-29 09:18:00,76.0,49.2,29.84,WNW,302,1.0,8.0,39,0.00,,,-99.99,Weather View 32 v60,2013-04-29 16:18:00,
2013-04-29 09:20:00,80.8,45.5,29.83,NNW,335,1.0,14.0,29,0.00,,,-99.99,Weather View 32 v60,2013-04-29 16:20:00,
2013-04-29 09:30:00,81.5,45.2,29.82,North,5,2.0,14.0,28,0.00,,,-99.99,Weather View 32 v60,2013-04-29 16:30:00,
2013-04-29 09:33:00,77.9,50.2,29.83,NNW,327,2.0,8.0,38,0.00,,,-99.99,Weather View 32 v60,2013-04-29 16:33:00,
2013-04-29 09:35:00,82.3,46.8,29.82,North,354,2.0,14.0,29,0.00,,,-99.99,Weather View 32 v60,2013-04-29 16:35:00,
2013-04-29 09:40:00,82.7,46.2,29.82,NNW,338,2.0,14.0,28,0.00,,,-99.99,Weather View 32 v60,2013-04-29 16:40:00,
2013-04-29 09:43:00,79.8,50.4,29.83,NW,326,1.0,8.0,36,0.00,,,-99.99,Weather View 32 v60,2013-04-29 16:43:00,
2013-04-29 09:45:00,82.3,45.8,29.82,NNE,30,3.0,14.0,28,0.00,,,-99.99,Weather View 32 v60,2013-04-29 16:45:00,
2013-04-29 09:48:00,80.5,50.2,29.83,North,8,1.0,8.0,35,0.00,,,-99.99,Weather View 32 v60,2013-04-29 16:48:00,
2013-04-29 09:50:00,83.5,45.9,29.82,NNE,33,1.0,14.0,27,0.00,,,-99.99,Weather View 32 v60,2013-04-29 16:50:00,
2013-04-29 09:53:00,80.5,47.8,29.83,NNE,24,1.0,8.0,32,0.00,,,-99.99,Weather View 32 v60,2013-04-29 16:53:00,
2013-04-29 09:55:00,84.1,46.4,29.82,NNW,328,3.0,14.0,27,0.00,,,-99.99,Weather View 32 v60,2013-04-29 16:55:00,
2013-04-29 10:00:00,84.5,46.7,29.82,WNW,299,2.0,14.0,27,0.00,,,-99.99,Weather View 32 v60,2013-04-29 17:00:00,
2013-04-29 10:03:00,80.4,46.9,29.83,North,351,5.0,8.0,31,0.00,,,-99.99,Weather View 32 v60,2013-04-29 17:03:00,
2013-04-29 10:05:00,85.2,46.3,29.82,WNW,301,7.0,14.0,26,0.00,,,-99.99,Weather View 32 v60,2013-04-29 17:05:00,
2013-04-29 10:08:00,80.2,45.9,29.83,North,351,2.0,10.0,30,0.00,,,-99.99,Weather View 32 v60,2013-04-29 17:08:00,
2013-04-29 10:15:00,85.1,45.2,29.82,WNW,303,7.0,14.0,25,0.00,,,-99.99,Weather View 32 v60,2013-04-29 17:15:00,
2013-04-29 10:20:00,85.3,46.4,29.81,NNW,338,2.0,13.0,26,0.00,,,-99.99,Weather View 32 v60,2013-04-29 17:20:00,
2013-04-29 10:25:00,86.5,46.4,29.81,North,4,2.0,13.0,25,0.00,,,-99.99,Weather View 32 v60,2013-04-29 17:25:00,
2013-04-29 10:28:00,81.2,44.9,29.83,WNW,298,5.0,14.0,28,0.00,,,-99.99,Weather View 32 v60,2013-04-29 17:28:00,
2013-04-29 10:30:00,87.5,47.2,29.81,NNE,14,1.0,13.0,25,0.00,,,-99.99,Weather View 32 v60,2013-04-29 17:30:00,
2013-04-29 10:35:00,88.6,45.9,29.81,NNE,13,1.0,13.0,23,0.00,,,-99.99,Weather View 32 v60,2013-04-29 17:35:00,
2013-04-29 10:40:00,89.3,46.5,29.81,NW,306,5.0,13.0,23,0.00,,,-99.99,Weather View 32 v60,2013-04-29 17:40:00,
2013-04-29 10:55:00,87.3,43.7,29.80,WNW,297,3.0,11.0,22,0.00,,,-99.99,Weather View 32 v60,2013-04-29 17:55:00,
2013-04-29 11:05:00,88.0,46.6,29.80,NNE,30,2.0,11.0,24,0.00,,,-99.99,Weather View 32 v60,2013-04-29 18:05:00,
2013-04-29 11:10:00,88.8,44.9,29.80,NNW,330,4.0,11.0,22,0.00,,,-99.99,Weather View 32 v60,2013-04-29 18:10:00,
2013-04-29 11:13:00,85.3,46.4,29.82,NNW,330,3.0,14.0,26,0.00,,,-99.99,Weather View 32 v60,2013-04-29 18:13:00,
2013-04-29 11:20:00,88.8,43.7,29.79,NW,320,5.0,11.0,21,0.00,,,-99.99,Weather View 32 v60,2013-04-29 18:20:00,
2013-04-29 11:40:00,88.2,43.2,29.78,West,277,2.0,11.0,21,0.00,,,-99.99,Weather View 32 v60,2013-04-29 18:40:00,
2013-04-29 11:41:00,88.6,45.9,29.81,NNE,13,1.0,13.0,23,0.00,,,-99.99,Weather View 32 v60,2013-04-29 18:41:00,
2013-04-29 11:45:00,89.5,44.3,29.78,WSW,246,2.0,9.0,21,0.00,,,-99.99,Weather View 32 v60,2013-04-29 18:45:00,
2013-04-29 11:48:00,89.0,45.1,29.81,NNW,344,1.0,11.0,22,0.00,,,-99.99,Weather View 32 v60,2013-04-29 18:48:00,
2013-04-29 11:50:00,90.5,43.8,29.78,NE,46,2.0,9.0,20,0.00,,,-99.99,Weather View 32 v60,2013-04-29 18:50:00,
2013-04-29 11:53:00,88.7,44.8,29.81,NW,316,6.0,11.0,22,0.00,,,-99.99,Weather View 32 v60,2013-04-29 18:53:00,
2013-04-29 12:00:00,91.4,45.8,29.78,NNE,28,1.0,9.0,21,0.00,,,-99.99,Weather View 32 v60,2013-04-29 19:00:00,
2013-04-29 12:03:00,87.7,45.2,29.81,NW,318,3.0,11.0,23,0.00,,,-99.99,Weather View 32 v60,2013-04-29 19:03:00,
2013-04-29 12:05:00,91.5,43.3,29.77,North,359,2.0,9.0,19,0.00,,,-99.99,Weather View 32 v60,2013-04-29 19:05:00,
2013-04-29 12:18:00,88.1,45.5,29.80,NNW,347,2.0,11.0,23,0.00,,,-99.99,Weather View 32 v60,2013-04-29 19:18:00,
2013-04-29 12:25:00,92.7,44.3,29.77,NW,319,2.0,9.0,19,0.00,,,-99.99,Weather View 32 v60,2013-04-29 19:25:00,
2013-04-29 12:28:00,89.2,45.3,29.79,North,5,1.0,11.0,22,0.00,,,-99.99,Weather View 32 v60,2013-04-29 19:28:00,
2013-04-29 12:33:00,88.6,44.8,29.79,WSW,249,2.0,11.0,22,0.00,,,-99.99,Weather View 32 v60,2013-04-29 19:33:00,
2013-04-29 12:35:00,92.9,43.0,29.77,NW,316,5.0,9.0,18,0.00,,,-99.99,Weather View 32 v60,2013-04-29 19:35:00,
2013-04-29 12:38:00,88.3,42.0,29.79,WNW,287,5.0,11.0,20,0.00,,,-99.99,Weather View 32 v60,2013-04-29 19:38:00,
2013-04-29 12:45:00,91.9,43.6,29.76,NE,56,2.0,11.0,19,0.00,,,-99.99,Weather View 32 v60,2013-04-29 19:45:00,
2013-04-29 12:50:00,93.9,43.8,29.76,West,279,3.0,11.0,18,0.00,,,-99.99,Weather View 32 v60,2013-04-29 19:50:00,
2013-04-29 12:58:00,91.2,44.4,29.78,NNW,347,2.0,9.0,20,0.00,,,-99.99,Weather View 32 v60,2013-04-29 19:58:00,
2013-04-29 13:10:00,91.9,43.6,29.75,NNE,22,2.0,11.0,19,0.00,,,-99.99,Weather View 32 v60,2013-04-29 20:10:00,
2013-04-29 13:13:00,91.7,43.5,29.77,NNW,337,4.0,9.0,19,0.00,,,-99.99,Weather View 32 v60,2013-04-29 20:13:00,
2013-04-29 13:18:00,91.0,44.2,29.77,NW,323,1.0,9.0,20,0.00,,,-99.99,Weather View 32 v60,2013-04-29 20:18:00,
2013-04-29 13:20:00,91.5,44.6,29.75,NNW,344,2.0,11.0,20,0.00,,,-99.99,Weather View 32 v60,2013-04-29 20:20:00,
2013-04-29 13:23:00,91.5,43.3,29.77,ENE,63,2.0,9.0,19,0.00,,,-99.99,Weather View 32 v60,2013-04-29 20:23:00,
2013-04-29 13:33:00,93.0,43.1,29.77,NW,322,2.0,9.0,18,0.00,,,-99.99,Weather View 32 v60,2013-04-29 20:33:00,
2013-04-29 13:35:00,92.4,45.4,29.74,NNW,335,3.0,11.0,20,0.00,,,-99.99,Weather View 32 v60,2013-04-29 20:35:00,
2013-04-29 13:38:00,92.9,43.0,29.77,NW,316,5.0,9.0,18,0.00,,,-99.99,Weather View 32 v60,2013-04-29 20:38:00,
2013-04-29 13:43:00,91.2,44.4,29.76,NNE,18,2.0,11.0,20,0.00,,,-99.99,Weather View 32 v60,2013-04-29 20:43:00,
2013-04-29 13:45:00,93.9,45.2,29.74,NE,53,2.0,12.0,19,0.00,,,-99.99,Weather View 32 v60,2013-04-29 20:45:00,
2013-04-29 13:50:00,94.4,44.2,29.73,North,8,1.0,12.0,18,0.00,,,-99.99,Weather View 32 v60,2013-04-29 20:50:00,
2013-04-29 13:58:00,92.5,44.1,29.76,North,359,2.0,11.0,19,0.00,,,-99.99,Weather View 32 v60,2013-04-29 20:58:00,
2013-04-29 14:03:00,93.2,43.3,29.75,NNE,29,2.0,11.0,18,0.00,,,-99.99,Weather View 32 v60,2013-04-29 21:03:00,
2013-04-29 14:05:00,94.7,45.9,29.73,North,3,2.0,12.0,19,0.00,,,-99.99,Weather View 32 v60,2013-04-29 21:05:00,
2013-04-29 14:08:00,94.3,44.1,29.75,WNW,295,8.0,11.0,18,0.00,,,-99.99,Weather View 32 v60,2013-04-29 21:08:00,
2013-04-29 14:10:00,94.6,45.8,29.72,NNW,344,8.0,12.0,19,0.00,,,-99.99,Weather View 32 v60,2013-04-29 21:10:00,
2013-04-29 14:15:00,93.4,43.4,29.72,West,280,4.0,12.0,18,0.00,,,-99.99,Weather View 32 v60,2013-04-29 21:15:00,
2013-04-29 14:18:00,91.7,43.5,29.75,NNW,342,2.0,11.0,19,0.00,,,-99.99,Weather View 32 v60,2013-04-29 21:18:00,
2013-04-29 14:28:00,91.6,44.7,29.74,NNW,339,3.0,11.0,20,0.00,,,-99.99,Weather View 32 v60,2013-04-29 21:28:00,
2013-04-29 14:33:00,92.7,44.3,29.74,NW,306,10.0,11.0,19,0.00,,,-99.99,Weather View 32 v60,2013-04-29 21:33:00,
2013-04-29 14:35:00,93.3,43.3,29.72,NW,321,5.0,12.0,18,0.00,,,-99.99,Weather View 32 v60,2013-04-29 21:35:00,
2013-04-29 14:38:00,92.4,45.4,29.74,NNW,335,3.0,11.0,20,0.00,,,-99.99,Weather View 32 v60,2013-04-29 21:38:00,
2013-04-29 14:40:00,93.2,44.7,29.72,NW,325,7.0,12.0,19,0.00,,,-99.99,Weather View 32 v60,2013-04-29 21:40:00,
2013-04-29 14:43:00,93.3,43.3,29.74,West,276,5.0,12.0,18,0.00,,,-99.99,Weather View 32 v60,2013-04-29 21:43:00,
2013-04-29 14:50:00,94.4,47.0,29.71,North,8,2.0,12.0,20,0.00,,,-99.99,Weather View 32 v60,2013-04-29 21:50:00,
2013-04-29 14:58:00,94.1,45.4,29.73,North,4,2.0,12.0,19,0.00,,,-99.99,Weather View 32 v60,2013-04-29 21:58:00,
2013-04-29 15:00:00,92.2,47.7,29.71,NW,320,3.0,17.0,22,0.00,,,-99.99,Weather View 32 v60,2013-04-29 22:00:00,
2013-04-29 15:03:00,94.5,47.1,29.73,NNW,344,4.0,12.0,20,0.00,,,-99.99,Weather View 32 v60,2013-04-29 22:03:00,
2013-04-29 15:05:00,91.2,45.7,29.71,NW,314,12.0,17.0,21,0.00,,,-99.99,Weather View 32 v60,2013-04-29 22:05:00,
2013-04-29 15:10:00,89.8,45.8,29.71,NNW,329,11.0,17.0,22,0.00,,,-99.99,Weather View 32 v60,2013-04-29 22:10:00,
2013-04-29 15:23:00,93.1,43.2,29.72,NW,304,4.0,12.0,18,0.00,,,-99.99,Weather View 32 v60,2013-04-29 22:23:00,
2013-04-29 15:25:00,89.4,47.7,29.71,NNW,340,3.0,20.0,24,0.00,,,-99.99,Weather View 32 v60,2013-04-29 22:25:00,
2013-04-29 15:33:00,93.6,45.0,29.72,NNW,339,9.0,12.0,19,0.00,,,-99.99,Weather View 32 v60,2013-04-29 22:33:00,
2013-04-29 15:48:00,94.0,46.7,29.71,NNW,347,3.0,12.0,20,0.00,,,-99.99,Weather View 32 v60,2013-04-29 22:48:00,
2013-04-29 15:50:00,88.8,47.2,29.70,NW,304,6.0,20.0,24,0.00,,,-99.99,Weather View 32 v60,2013-04-29 22:50:00,
2013-04-29 15:58:00,93.3,47.4,29.71,North,354,3.0,12.0,21,0.00,,,-99.99,Weather View 32 v60,2013-04-29 22:58:00,
2013-04-29 16:05:00,87.7,46.3,29.70,WNW,283,5.0,25.0,24,0.00,,,-99.99,Weather View 32 v60,2013-04-29 23:05:00,
2013-04-29 16:18:00,89.8,46.9,29.71,NNW,333,8.0,17.0,23,0.00,,,-99.99,Weather View 32 v60,2013-04-29 23:18:00,
2013-04-29 16:20:00,87.8,46.4,29.70,WNW,299,12.0,25.0,24,0.00,,,-99.99,Weather View 32 v60,2013-04-29 23:20:00,
2013-04-29 16:23:00,89.6,45.6,29.71,WNW,292,7.0,20.0,22,0.00,,,-99.99,Weather View 32 v60,2013-04-29 23:23:00,
2013-04-29 16:33:00,89.0,46.3,29.71,NW,313,6.0,20.0,23,0.00,,,-99.99,Weather View 32 v60,2013-04-29 23:33:00,
2013-04-29 16:38:00,89.3,47.7,29.71,NW,304,2.0,20.0,24,0.00,,,-99.99,Weather View 32 v60,2013-04-29 23:38:00,
2013-04-29 16:44:00,89.2,46.4,29.70,NW,307,9.0,20.0,23,0.00,,,-99.99,Weather View 32 v60,2013-04-29 23:44:00,
2013-04-29 16:45:00,86.5,45.3,29.70,NW,324,4.0,25.0,24,0.00,,,-99.99,Weather View 32 v60,2013-04-29 23:45:00,
2013-04-29 16:55:00,85.5,45.5,29.70,NW,322,10.0,24.0,25,0.00,,,-99.99,Weather View 32 v60,2013-04-29 23:55:00,
2013-04-29 16:58:00,87.8,46.4,29.70,WNW,299,15.0,25.0,24,0.00,,,-99.99,Weather View 32 v60,2013-04-29 23:58:00,
2013-04-29 17:00:00,85.0,45.1,29.70,NNW,346,5.0,22.0,25,0.00,,,-99.99,Weather View 32 v60,2013-04-30 00:00:00,
2013-04-29 17:03:00,87.1,45.8,29.70,North,3,6.0,25.0,24,0.00,,,-99.99,Weather View 32 v60,2013-04-30 00:03:00,
2013-04-29 17:05:00,84.7,44.9,29.70,NNW,348,6.0,22.0,25,0.00,,,-99.99,Weather View 32 v60,2013-04-30 00:05:00,
2013-04-29 17:15:00,87.9,46.5,29.70,NNW,327,12.0,17.0,24,0.00,,,-99.99,Weather View 32 v60,2013-04-30 00:15:00,
2013-04-29 17:20:00,83.4,44.8,29.70,NW,306,10.0,25.0,26,0.00,,,-99.99,Weather View 32 v60,2013-04-30 00:20:00,
2013-04-29 17:28:00,87.1,45.8,29.70,WNW,296,13.0,25.0,24,0.00,,,-99.99,Weather View 32 v60,2013-04-30 00:28:00,
2013-04-29 17:30:00,83.1,44.6,29.69,NNW,345,11.0,27.0,26,0.00,,,-99.99,Weather View 32 v60,2013-04-30 00:30:00,
2013-04-29 17:33:00,87.1,45.8,29.70,NW,305,11.0,25.0,24,0.00,,,-99.99,Weather View 32 v60,2013-04-30 00:33:00,
2013-04-29 17:43:00,87.3,46.0,29.70,WNW,295,6.0,25.0,24,0.00,,,-99.99,Weather View 32 v60,2013-04-30 00:43:00,
2013-04-29 17:45:00,81.2,44.9,29.69,NW,322,8.0,27.0,28,0.00,,,-99.99,Weather View 32 v60,2013-04-30 00:45:00,
2013-04-29 17:53:00,86.2,46.1,29.70,NW,324,8.0,25.0,25,0.00,,,-99.99,Weather View 32 v60,2013-04-30 00:53:00,
2013-04-29 17:55:00,80.1,44.9,29.70,NW,321,6.0,27.0,29,0.00,,,-99.99,Weather View 32 v60,2013-04-30 00:55:00,
2013-04-29 18:05:00,78.9,44.7,29.70,NNW,331,4.0,31.0,30,0.00,,,-99.99,Weather View 32 v60,2013-04-30 01:05:00,
2013-04-29 18:10:00,78.4,44.3,29.70,NNW,337,7.0,31.0,30,0.00,,,-99.99,Weather View 32 v60,2013-04-30 01:10:00,
2013-04-29 18:13:00,84.5,44.7,29.70,North,3,4.0,22.0,25,0.00,,,-99.99,Weather View 32 v60,2013-04-30 01:13:00,
2013-04-29 18:15:00,78.1,44.9,29.70,NNW,343,8.0,31.0,31,0.00,,,-99.99,Weather View 32 v60,2013-04-30 01:15:00,
2013-04-29 18:25:00,77.3,45.1,29.70,NNW,330,5.0,31.0,32,0.00,,,-99.99,Weather View 32 v60,2013-04-30 01:25:00,
2013-04-29 18:28:00,83.7,45.1,29.69,WNW,296,10.0,25.0,26,0.00,,,-99.99,Weather View 32 v60,2013-04-30 01:28:00,
2013-04-29 18:35:00,76.7,44.5,29.70,NW,307,8.0,31.0,32,0.00,,,-99.99,Weather View 32 v60,2013-04-30 01:35:00,
2013-04-29 18:38:00,82.7,45.2,29.70,WNW,297,8.0,27.0,27,0.00,,,-99.99,Weather View 32 v60,2013-04-30 01:38:00,
2013-04-29 18:40:00,76.2,44.1,29.70,NW,320,8.0,31.0,32,0.00,,,-99.99,Weather View 32 v60,2013-04-30 01:40:00,
2013-04-29 18:43:00,81.8,44.4,29.69,NE,46,6.0,27.0,27,0.00,,,-99.99,Weather View 32 v60,2013-04-30 01:43:00,
2013-04-29 18:45:00,75.3,44.1,29.70,WNW,295,7.0,31.0,33,0.00,,,-99.99,Weather View 32 v60,2013-04-30 01:45:00,
2013-04-29 18:50:00,74.8,44.5,29.70,NW,312,9.0,31.0,34,0.00,,,-99.99,Weather View 32 v60,2013-04-30 01:50:00,
2013-04-29 18:53:00,80.6,44.4,29.69,NW,322,6.0,27.0,28,0.00,,,-99.99,Weather View 32 v60,2013-04-30 01:53:00,
2013-04-29 18:55:00,74.3,44.0,29.70,NW,324,8.0,31.0,34,0.00,,,-99.99,Weather View 32 v60,2013-04-30 01:55:00,
2013-04-29 19:03:00,79.4,44.3,29.70,NW,311,12.0,31.0,29,0.00,,,-99.99,Weather View 32 v60,2013-04-30 02:03:00,
2013-04-29 19:05:00,73.6,44.2,29.70,NNW,328,15.0,25.0,35,0.00,,,-99.99,Weather View 32 v60,2013-04-30 02:05:00,
2013-04-29 19:10:00,73.2,43.8,29.70,North,5,5.0,25.0,35,0.00,,,-99.99,Weather View 32 v60,2013-04-30 02:10:00,
2013-04-29 19:15:00,72.9,44.3,29.70,North,8,4.0,25.0,36,0.00,,,-99.99,Weather View 32 v60,2013-04-30 02:15:00,
2013-04-29 19:23:00,77.6,44.5,29.70,NW,309,11.0,31.0,31,0.00,,,-99.99,Weather View 32 v60,2013-04-30 02:23:00,
2013-04-29 19:25:00,72.3,43.8,29.70,NW,309,13.0,25.0,36,0.00,,,-99.99,Weather View 32 v60,2013-04-30 02:25:00,
2013-04-29 19:30:00,72.1,44.3,29.70,North,351,4.0,25.0,37,0.00,,,-99.99,Weather View 32 v60,2013-04-30 02:30:00,
2013-04-29 19:33:00,77.0,44.8,29.70,North,356,2.0,31.0,32,0.00,,,-99.99,Weather View 32 v60,2013-04-30 02:33:00,
2013-04-29 19:35:00,71.9,44.1,29.70,NW,312,5.0,25.0,37,0.00,,,-99.99,Weather View 32 v60,2013-04-30 02:35:00,
2013-04-29 19:40:00,71.6,43.9,29.70,NW,306,16.0,25.0,37,0.00,,,-99.99,Weather View 32 v60,2013-04-30 02:40:00,
2013-04-29 19:45:00,71.4,44.4,29.70,WNW,294,7.0,23.0,38,0.00,,,-99.99,Weather View 32 v60,2013-04-30 02:45:00,
2013-04-29 19:50:00,71.1,44.1,29.70,NW,321,17.0,26.0,38,0.00,,,-99.99,Weather View 32 v60,2013-04-30 02:50:00,
2013-04-29 20:00:00,70.5,44.3,29.70,WNW,302,21.0,26.0,39,0.00,,,-99.99,Weather View 32 v60,2013-04-30 03:00:00,
2013-04-29 20:03:00,74.0,44.5,29.70,WNW,303,8.0,25.0,35,0.00,,,-99.99,Weather View 32 v60,2013-04-30 03:03:00,
2013-04-29 20:05:00,70.3,44.1,29.70,NW,317,19.0,26.0,39,0.00,,,-99.99,Weather View 32 v60,2013-04-30 03:05:00,
2013-04-29 20:10:00,70.0,44.5,29.70,NNE,31,4.0,26.0,40,0.00,,,-99.99,Weather View 32 v60,2013-04-30 03:10:00,
2013-04-29 20:15:00,69.7,44.2,29.70,NW,308,9.0,26.0,40,0.00,,,-99.99,Weather View 32 v60,2013-04-30 03:15:00,
2013-04-29 20:20:00,69.5,44.1,29.71,NNW,343,4.0,26.0,40,0.00,,,-99.99,Weather View 32 v60,2013-04-30 03:20:00,
2013-04-29 20:23:00,72.7,44.1,29.70,NW,317,13.0,25.0,36,0.00,,,-99.99,Weather View 32 v60,2013-04-30 03:23:00,
2013-04-29 20:25:00,69.2,44.4,29.71,North,1,3.0,26.0,41,0.00,,,-99.99,Weather View 32 v60,2013-04-30 03:25:00,
2013-04-29 20:30:00,69.0,44.3,29.71,WSW,242,3.0,26.0,41,0.00,,,-99.99,Weather View 32 v60,2013-04-30 03:30:00,
2013-04-29 20:35:00,68.8,44.1,29.71,ENE,64,2.0,26.0,41,0.00,,,-99.99,Weather View 32 v60,2013-04-30 03:35:00,
2013-04-29 20:40:00,68.3,44.3,29.71,North,357,2.0,26.0,42,0.00,,,-99.99,Weather View 32 v60,2013-04-30 03:40:00,
2013-04-29 20:45:00,68.0,44.0,29.71,North,4,2.0,26.0,42,0.00,,,-99.99,Weather View 32 v60,2013-04-30 03:45:00,
2013-04-29 20:50:00,67.7,44.3,29.71,North,1,3.0,25.0,43,0.00,,,-99.99,Weather View 32 v60,2013-04-30 03:50:00,
2013-04-29 20:55:00,67.5,44.2,29.71,NNE,23,5.0,25.0,43,0.00,,,-99.99,Weather View 32 v60,2013-04-30 03:55:00,
2013-04-29 20:58:00,70.8,43.9,29.70,NW,304,10.0,26.0,38,0.00,,,-99.99,Weather View 32 v60,2013-04-30 03:58:00,
2013-04-29 21:00:00,67.1,44.4,29.72,NE,54,4.0,25.0,44,0.00,,,-99.99,Weather View 32 v60,2013-04-30 04:00:00,
2013-04-29 21:05:00,66.8,44.1,29.72,NNW,327,1.0,25.0,44,0.00,,,-99.99,Weather View 32 v60,2013-04-30 04:05:00,
2013-04-29 21:10:00,66.6,44.0,29.72,NNW,334,2.0,19.0,44,0.00,,,-99.99,Weather View 32 v60,2013-04-30 04:10:00,
2013-04-29 21:15:00,66.5,43.9,29.72,NW,316,2.0,19.0,44,0.00,,,-99.99,Weather View 32 v60,2013-04-30 04:15:00,
2013-04-29 21:20:00,66.3,43.7,29.72,NW,325,10.0,19.0,44,0.00,,,-99.99,Weather View 32 v60,2013-04-30 04:20:00,
2013-04-29 21:25:00,66.2,44.2,29.72,NNW,336,2.0,19.0,45,0.00,,,-99.99,Weather View 32 v60,2013-04-30 04:25:00,
2013-04-29 21:30:00,66.0,44.0,29.71,WNW,297,5.0,12.0,45,0.00,,,-99.99,Weather View 32 v60,2013-04-30 04:30:00,
2013-04-29 21:35:00,65.7,43.7,29.71,NNW,331,2.0,12.0,45,0.00,,,-99.99,Weather View 32 v60,2013-04-30 04:35:00,
2013-04-29 21:40:00,65.5,44.1,29.72,North,360,2.0,12.0,46,0.00,,,-99.99,Weather View 32 v60,2013-04-30 04:40:00,
2013-04-29 21:45:00,65.2,43.8,29.72,North,351,5.0,12.0,46,0.00,,,-99.99,Weather View 32 v60,2013-04-30 04:45:00,
2013-04-29 21:50:00,65.1,43.8,29.72,North,1,2.0,12.0,46,0.00,,,-99.99,Weather View 32 v60,2013-04-30 04:50:00,
2013-04-29 21:55:00,64.8,44.0,29.72,NNW,327,3.0,12.0,47,0.00,,,-99.99,Weather View 32 v60,2013-04-30 04:55:00,
2013-04-29 22:00:00,64.5,43.8,29.72,NNE,28,2.0,12.0,47,0.00,,,-99.99,Weather View 32 v60,2013-04-30 05:00:00,
2013-04-29 22:05:00,64.3,43.6,29.72,NNE,20,3.0,12.0,47,0.00,,,-99.99,Weather View 32 v60,2013-04-30 05:05:00,
2013-04-29 22:10:00,64.1,44.0,29.72,ENE,59,3.0,12.0,48,0.00,,,-99.99,Weather View 32 v60,2013-04-30 05:10:00,
2013-04-29 22:15:00,63.9,43.8,29.72,NW,323,2.0,12.0,48,0.00,,,-99.99,Weather View 32 v60,2013-04-30 05:15:00,
2013-04-29 22:20:00,63.8,43.7,29.72,NNW,346,3.0,12.0,48,0.00,,,-99.99,Weather View 32 v60,2013-04-30 05:20:00,
2013-04-29 22:25:00,63.5,44.0,29.72,North,10,2.0,12.0,49,0.00,,,-99.99,Weather View 32 v60,2013-04-30 05:25:00,
2013-04-29 22:30:00,63.4,43.9,29.72,North,354,1.0,12.0,49,0.00,,,-99.99,Weather View 32 v60,2013-04-30 05:30:00,
2013-04-29 22:35:00,63.3,43.8,29.72,North,351,2.0,12.0,49,0.00,,,-99.99,Weather View 32 v60,2013-04-30 05:35:00,
2013-04-29 22:40:00,63.3,43.8,29.72,North,7,2.0,12.0,49,0.00,,,-99.99,Weather View 32 v60,2013-04-30 05:40:00,
2013-04-29 22:45:00,63.2,43.7,29.72,NNW,334,1.0,12.0,49,0.00,,,-99.99,Weather View 32 v60,2013-04-30 05:45:00,
2013-04-29 22:50:00,63.1,44.1,29.72,NNW,327,2.0,10.0,50,0.00,,,-99.99,Weather View 32 v60,2013-04-30 05:50:00,
2013-04-29 22:55:00,62.9,43.9,29.72,North,2,1.0,10.0,50,0.00,,,-99.99,Weather View 32 v60,2013-04-30 05:55:00,
2013-04-29 23:00:00,62.8,43.8,29.72,NE,44,3.0,10.0,50,0.00,,,-99.99,Weather View 32 v60,2013-04-30 06:00:00,
2013-04-29 23:05:00,62.8,44.4,29.72,North,9,4.0,10.0,51,0.00,,,-99.99,Weather View 32 v60,2013-04-30 06:05:00,
2013-04-29 23:10:00,62.9,44.5,29.72,North,9,3.0,10.0,51,0.00,,,-99.99,Weather View 32 v60,2013-04-30 06:10:00,
2013-04-29 23:15:00,62.8,44.4,29.72,North,7,2.0,10.0,51,0.00,,,-99.99,Weather View 32 v60,2013-04-30 06:15:00,
2013-04-29 23:20:00,62.8,44.4,29.73,North,4,2.0,10.0,51,0.00,,,-99.99,Weather View 32 v60,2013-04-30 06:20:00,
2013-04-29 23:25:00,62.7,44.3,29.73,NNW,342,1.0,10.0,51,0.00,,,-99.99,Weather View 32 v60,2013-04-30 06:25:00,
2013-04-29 23:30:00,62.5,44.1,29.73,North,350,1.0,10.0,51,0.00,,,-99.99,Weather View 32 v60,2013-04-30 06:30:00,
2013-04-29 23:35:00,62.4,44.0,29.73,NNW,329,2.0,10.0,51,0.00,,,-99.99,Weather View 32 v60,2013-04-30 06:35:00,
2013-04-29 23:40:00,62.5,44.1,29.73,NNE,12,1.0,10.0,51,0.00,,,-99.99,Weather View 32 v60,2013-04-30 06:40:00,
2013-04-29 23:45:00,62.5,44.1,29.73,NNE,32,3.0,11.0,51,0.00,,,-99.99,Weather View 32 v60,2013-04-30 06:45:00,
2013-04-29 23:50:00,62.5,43.6,29.73,NNW,329,3.0,11.0,50,0.00,,,-99.99,Weather View 32 v60,2013-04-30 06:50:00,
2013-04-29 23:55:00,62.4,43.5,29.73,North,3,3.0,11.0,50,0.00,,,-99.99,Weather View 32 v60,2013-04-30 06:55:00,